Hauptseite
METAR-TAF:

METAR-TAF

Flughäfen :

Poplar Bluff Municipal Airport

Poplar Bluff, Missouri, Vereinigte Staaten

Breite: 36-46-14N, Länge: 090-19-20W, Höhe: 100 m

Beobachtung

Neuester Wetterbericht von vor 32 Minuten, um 15:53 UTC
Wind 4 kt aus Ost
Temperatur 15°C
Luftfeuchtigkeit 44%
Luftdruck 1025 hPa
Sichtweite: 16.1 km
Himmel klar

METAR: KPOF 301553Z AUTO 10004KT 10SM CLR 15/03 A3026 RMK AO2 SLP245 T01500033

Zeit: 11:25 (16:25 UTC)


TAF: fehlend

Wetterbeobachtungen und Prognosen von mehr als 4000 Flughäfen (METAR und TAF Bericht).

Die verfügbaren Stationen werden durch gelbe und rote Markierungen auf der Karte dargestellt.

Führen Sie die Maus auf sie, um den Namen der Station zu sehen.

Darauf klicken, um die Beobachtung von Wetterbeobachtungen und Prognosen zu sehen.

Um die Karte zu ändern : klicken Sie auf den grünen Tasten mit einem schwarzen Kreuz Zum Vergrößern, auf den grünen Button mit einem Gedankenstrich zu verkleinern, oder auf die grünen Pfeile für benachbarte Karten.


METAR-TAF: